Time;durP1;ratioP1;P1;durP2;ratioP2;P2;SDS_P1;SDS_P2;PMS_P1;PMS_P2;Temp;Humidity;BMP_temperature;BMP_pressure;BME280_temperature;BME280_humidity;BME280_pressure;Samples;Min_cycle;Max_cycle;Signal;HPM_P1;HPM_P2
2023/02/16 00:00:15;;;;;;;;;;;;;;;4.06;76.93;102071.45;108790;1257;59524;-87
2023/02/16 00:03:02;;;;;;;;;;;;;;;4.10;76.90;102070.68;108662;1257;125578;-87
2023/02/16 00:05:32;;;;;;;;;;;;;;;4.10;76.89;102069.80;108858;1256;67065;-87
2023/02/16 00:07:59;;;;;;;;;;;;;;;4.11;76.81;102063.27;108613;1257;71176;-86
2023/02/16 00:10:29;;;;;;;;;;;;;;;4.13;76.80;102062.86;108557;1260;125247;-86
2023/02/16 00:15:41;;;;;;;;;;;;;;;4.14;76.79;102051.80;108692;1257;124209;-86
2023/02/16 00:18:18;;;;;;;;;;;;;;;4.14;76.85;102052.31;108756;1257;67094;-86
2023/02/16 00:20:45;;;;;;;;;;;;;;;4.11;76.75;102049.00;108768;1258;72559;-86
2023/02/16 00:23:12;;;;;;;;;;;;;;;4.08;76.81;102046.04;108676;1257;124568;-86
2023/02/16 00:25:39;;;;;;;;;;;;;;;4.04;76.71;102043.83;108619;1258;59281;-86
2023/02/16 00:28:11;;;;;;;;;;;;;;;4.00;76.79;102038.00;108547;1257;125516;-86
2023/02/16 00:30:38;;;;;;;;;;;;;;;3.98;76.84;102035.02;108901;1257;67497;-86
2023/02/16 00:33:23;;;;;;;;;;;;;;;3.95;76.89;102028.92;108662;1257;124107;-86
2023/02/16 00:35:50;;;;;;;;;;;;;;;3.93;76.95;102025.81;108791;1256;59112;-86
2023/02/16 00:38:17;;;;;;;;;;;;;;;3.92;76.89;102026.42;108725;1258;60465;-86
2023/02/16 00:40:44;;;;;;;;;;;;;;;3.90;76.89;102026.33;108582;1256;125218;-86
2023/02/16 00:43:24;;;;;;;;;;;;;;;3.87;76.92;102029.93;108739;1257;67097;-85
2023/02/16 00:45:51;;;;;;;;;;;;;;;3.83;77.00;102028.06;108488;1257;126230;-85
2023/02/16 00:48:18;;;;;;;;;;;;;;;3.81;77.00;102022.02;108704;1258;59357;-85
2023/02/16 00:50:45;;;;;;;;;;;;;;;3.79;77.00;102020.61;108723;1262;60025;-86
2023/02/16 00:53:12;;;;;;;;;;;;;;;3.75;76.93;102019.52;108631;1258;123593;-86
2023/02/16 00:55:39;;;;;;;;;;;;;;;3.72;77.18;102014.77;108850;1257;67562;-86
2023/02/16 00:58:15;;;;;;;;;;;;;;;3.71;77.18;102013.84;108631;1258;125100;-86
2023/02/16 01:00:44;;;;;;;;;;;;;;;3.71;77.22;102014.68;108742;1257;59093;-86
2023/02/16 01:03:17;;;;;;;;;;;;;;;3.74;77.36;102016.95;108654;1257;124615;-87
2023/02/16 01:05:45;;;;;;;;;;;;;;;3.77;77.44;102007.49;108691;1256;73408;-86
2023/02/16 01:13:29;;;;;;;;;;;;;;;3.83;77.24;102006.75;108776;1257;59410;-86
2023/02/16 01:15:56;;;;;;;;;;;;;;;3.84;77.33;102006.80;108593;1261;126127;-86
2023/02/16 01:18:23;;;;;;;;;;;;;;;3.81;77.25;102000.46;108640;1257;74634;-85
2023/02/16 01:20:50;;;;;;;;;;;;;;;3.80;77.24;101998.16;108454;1263;124569;-86
2023/02/16 01:23:17;;;;;;;;;;;;;;;3.82;77.37;101993.98;108760;1258;72682;-85
2023/02/16 01:25:44;;;;;;;;;;;;;;;3.82;77.36;101995.85;108818;1257;59337;-86
2023/02/16 01:28:21;;;;;;;;;;;;;;;3.82;77.28;101999.66;108617;1256;124819;-86
2023/02/16 01:30:48;;;;;;;;;;;;;;;3.81;77.20;101990.25;108751;1258;75377;-86
2023/02/16 01:33:15;;;;;;;;;;;;;;;3.82;77.47;101989.09;108638;1257;125413;-85
2023/02/16 01:35:42;;;;;;;;;;;;;;;3.84;77.44;101983.72;108749;1257;72769;-86
2023/02/16 01:38:15;;;;;;;;;;;;;;;3.87;77.45;101980.63;108816;1256;59540;-85
2023/02/16 01:40:43;;;;;;;;;;;;;;;3.88;77.44;101975.99;108712;1257;124579;-85
2023/02/16 01:43:17;;;;;;;;;;;;;;;3.88;77.29;101969.04;108689;1257;74177;-86
2023/02/16 01:45:46;;;;;;;;;;;;;;;3.86;77.23;101964.23;108648;1256;166907;-86
2023/02/16 01:48:17;;;;;;;;;;;;;;;3.84;77.20;101959.89;108846;1257;72476;-85
2023/02/16 01:50:48;;;;;;;;;;;;;;;3.78;77.14;101958.23;108709;1256;60108;-86
2023/02/16 01:53:24;;;;;;;;;;;;;;;3.71;77.04;101956.71;108719;1257;61098;-86
2023/02/16 01:55:52;;;;;;;;;;;;;;;3.65;77.10;101952.31;108794;1257;74007;-86
2023/02/16 01:58:27;;;;;;;;;;;;;;;3.61;77.33;101947.16;108707;1257;124969;-86
2023/02/16 02:00:53;;;;;;;;;;;;;;;3.55;77.28;101943.08;108770;1258;72402;-85
2023/02/16 02:06:21;;;;;;;;;;;;;;;3.48;77.43;101940.81;108723;1256;59471;-86
2023/02/16 02:08:50;;;;;;;;;;;;;;;3.45;77.58;101936.30;108730;1257;73761;-86
2023/02/16 02:11:19;;;;;;;;;;;;;;;3.44;77.57;101934.30;108741;1257;65611;-86
2023/02/16 02:13:58;;;;;;;;;;;;;;;3.43;77.64;101926.94;108699;1257;71409;-86
2023/02/16 02:16:25;;;;;;;;;;;;;;;3.43;77.65;101923.25;108804;1259;125844;-85
2023/02/16 02:18:52;;;;;;;;;;;;;;;3.44;77.86;101925.06;108715;1257;59975;-85
2023/02/16 02:24:22;;;;;;;;;;;;;;;3.37;77.91;101920.61;108999;1260;64807;-84
2023/02/16 02:27:19;;;;;;;;;;;;;;;3.36;77.78;101912.88;108715;1255;73110;-85
2023/02/16 02:29:48;;;;;;;;;;;;;;;3.31;77.74;101908.20;108311;1263;59617;-86
2023/02/16 02:32:32;;;;;;;;;;;;;;;3.33;77.94;101909.88;108392;1262;59474;-86
2023/02/16 02:35:01;;;;;;;;;;;;;;;3.34;77.95;101903.70;108111;1263;124954;-87
2023/02/16 02:37:47;;;;;;;;;;;;;;;3.33;77.89;101894.63;108337;1263;67157;-86
2023/02/16 02:40:13;;;;;;;;;;;;;;;3.34;77.96;101893.81;108401;1262;126168;-86
2023/02/16 02:42:47;;;;;;;;;;;;;;;3.35;77.98;101897.02;108479;1262;59353;-87
2023/02/16 02:45:24;;;;;;;;;;;;;;;3.37;78.13;101892.51;108271;1263;125869;-87
2023/02/16 02:47:51;;;;;;;;;;;;;;;3.40;78.07;101890.78;108198;1264;76460;-86
2023/02/16 02:50:36;;;;;;;;;;;;;;;3.43;78.09;101884.73;108233;1267;67705;-86
2023/02/16 02:53:04;;;;;;;;;;;;;;;3.45;78.21;101885.56;108370;1263;125699;-86
2023/02/16 03:01:03;;;;;;;;;;;;;;;3.49;78.05;101865.77;108463;1263;73428;-87
2023/02/16 03:03:35;;;;;;;;;;;;;;;3.50;78.10;101861.70;108155;1263;125505;-87
2023/02/16 03:06:08;;;;;;;;;;;;;;;3.52;78.04;101864.73;108303;1256;73263;-86
2023/02/16 03:08:36;;;;;;;;;;;;;;;3.55;78.27;101862.88;108786;1257;59463;-85
2023/02/16 03:13:57;;;;;;;;;;;;;;;3.53;77.99;101859.23;108765;1258;75423;-86
2023/02/16 03:16:26;;;;;;;;;;;;;;;3.51;77.97;101859.84;108465;1256;124689;-86
2023/02/16 03:30:00;;;;;;;;;;;;;;;3.33;77.86;101837.50;108539;1257;66113;-86
2023/02/16 03:32:27;;;;;;;;;;;;;;;3.29;78.00;101837.64;108576;1256;71393;-86
2023/02/16 03:34:54;;;;;;;;;;;;;;;3.30;78.21;101844.15;108569;1257;123755;-86
2023/02/16 03:37:20;;;;;;;;;;;;;;;3.30;78.15;101844.44;108702;1258;61989;-86
2023/02/16 03:42:33;;;;;;;;;;;;;;;3.25;78.10;101842.55;108795;1260;67648;-85
2023/02/16 03:44:59;;;;;;;;;;;;;;;3.22;78.17;101846.84;108659;1256;123884;-85
2023/02/16 03:47:26;;;;;;;;;;;;;;;3.22;78.24;101848.16;108791;1257;60010;-85
2023/02/16 03:49:53;;;;;;;;;;;;;;;3.18;78.28;101851.38;108842;1257;59134;-85
2023/02/16 03:52:20;;;;;;;;;;;;;;;3.15;78.23;101852.20;108626;1257;125144;-85
2023/02/16 03:54:47;;;;;;;;;;;;;;;3.13;78.43;101849.65;108691;1258;67511;-85
2023/02/16 03:57:15;;;;;;;;;;;;;;;3.14;78.46;101847.80;108620;1257;125076;-84
2023/02/16 03:59:42;;;;;;;;;;;;;;;3.16;78.59;101848.42;108594;1256;59856;-85
2023/02/16 04:02:09;;;;;;;;;;;;;;;3.16;78.58;101844.13;108601;1258;59417;-86
2023/02/16 04:04:36;;;;;;;;;;;;;;;3.19;78.69;101840.55;108563;1256;125732;-85
2023/02/16 04:07:03;;;;;;;;;;;;;;;3.22;78.58;101834.02;108646;1256;68147;-85
2023/02/16 04:09:30;;;;;;;;;;;;;;;3.24;78.62;101827.86;108652;1256;124596;-85
2023/02/16 04:14:42;;;;;;;;;;;;;;;3.25;78.65;101819.98;108815;1256;59586;-84
2023/02/16 04:17:09;;;;;;;;;;;;;;;3.28;78.64;101819.69;108725;1257;125360;-84
2023/02/16 04:19:36;;;;;;;;;;;;;;;3.30;78.70;101818.25;108796;1257;67094;-85
2023/02/16 04:22:03;;;;;;;;;;;;;;;3.32;78.57;101822.88;108517;1256;125089;-84
2023/02/16 04:24:30;;;;;;;;;;;;;;;3.34;78.54;101816.82;108680;1257;59414;-85
2023/02/16 04:26:57;;;;;;;;;;;;;;;3.34;78.51;101814.56;108684;1256;124473;-85
2023/02/16 04:29:24;;;;;;;;;;;;;;;3.32;78.33;101811.80;108847;1256;75215;-85
2023/02/16 04:31:51;;;;;;;;;;;;;;;3.33;78.38;101806.64;108741;1256;67615;-84
2023/02/16 04:34:18;;;;;;;;;;;;;;;3.34;78.40;101803.45;108685;1257;124465;-85
2023/02/16 04:36:45;;;;;;;;;;;;;;;3.34;78.44;101802.93;108596;1257;59360;-85
2023/02/16 04:39:12;;;;;;;;;;;;;;;3.33;78.23;101803.04;108650;1257;125288;-85
2023/02/16 04:41:39;;;;;;;;;;;;;;;3.33;78.35;101799.22;108635;1256;73586;-85
2023/02/16 04:44:06;;;;;;;;;;;;;;;3.33;78.37;101799.33;108697;1257;67355;-86
2023/02/16 04:46:33;;;;;;;;;;;;;;;3.31;78.29;101801.97;108774;1260;125048;-85
2023/02/16 04:49:00;;;;;;;;;;;;;;;3.30;78.27;101799.02;108618;1257;59918;-86
2023/02/16 04:51:27;;;;;;;;;;;;;;;3.30;78.25;101796.22;108676;1256;123989;-85
2023/02/16 04:53:57;;;;;;;;;;;;;;;3.29;78.39;101795.62;108883;1257;74122;-85
2023/02/16 04:56:24;;;;;;;;;;;;;;;3.25;78.15;101798.14;108818;1258;67391;-83
2023/02/16 04:58:51;;;;;;;;;;;;;;;3.21;78.28;101796.27;108614;1257;125437;-83
2023/02/16 05:01:21;;;;;;;;;;;;;;;3.20;78.41;101792.39;108833;1257;59351;-83
2023/02/16 05:03:48;;;;;;;;;;;;;;;3.19;78.29;101794.52;108666;1260;124281;-83
2023/02/16 05:06:14;;;;;;;;;;;;;;;3.16;78.36;101796.27;108774;1257;75075;-84
2023/02/16 05:08:41;;;;;;;;;;;;;;;3.15;78.51;101798.59;108874;1257;67648;-83
2023/02/16 05:16:40;;;;;;;;;;;;;;;3.23;78.55;101780.80;108615;1257;125338;-83
2023/02/16 05:19:07;;;;;;;;;;;;;;;3.22;78.64;101777.09;108566;1257;76377;-83
2023/02/16 05:21:34;;;;;;;;;;;;;;;3.22;78.80;101778.11;108681;1257;125745;-83
2023/02/16 05:24:02;;;;;;;;;;;;;;;3.19;78.59;101771.83;108824;1256;71895;-83
2023/02/16 05:26:29;;;;;;;;;;;;;;;3.18;78.63;101774.73;108798;1257;59429;-83
2023/02/16 05:28:56;;;;;;;;;;;;;;;3.17;78.58;101773.06;108604;1257;125379;-83
2023/02/16 05:31:23;;;;;;;;;;;;;;;3.17;78.58;101773.95;108522;1256;74669;-81
2023/02/16 05:33:50;;;;;;;;;;;;;;;3.17;78.62;101777.77;108580;1256;125377;-80
2023/02/16 05:36:17;;;;;;;;;;;;;;;3.19;78.70;101782.94;108813;1256;73230;-80
2023/02/16 05:38:44;;;;;;;;;;;;;;;3.22;78.73;101782.97;108800;1256;59388;-83
2023/02/16 05:41:22;;;;;;;;;;;;;;;3.26;78.79;101788.63;108691;1257;126007;-83
2023/02/16 05:43:50;;;;;;;;;;;;;;;3.30;78.86;101790.01;108871;1257;73439;-85
2023/02/16 05:46:16;;;;;;;;;;;;;;;3.35;78.85;101788.78;108667;1256;124924;-84
2023/02/16 05:48:43;;;;;;;;;;;;;;;3.39;78.65;101786.92;108745;1257;72050;-84
2023/02/16 05:51:10;;;;;;;;;;;;;;;3.40;78.52;101790.15;108567;1264;125898;-84
2023/02/16 05:53:37;;;;;;;;;;;;;;;3.42;78.76;101790.45;108896;1256;60678;-84
2023/02/16 05:56:04;;;;;;;;;;;;;;;3.42;78.57;101791.54;108829;1256;75279;-86
2023/02/16 05:58:31;;;;;;;;;;;;;;;3.43;78.58;101787.57;108600;1257;124871;-85
2023/02/16 06:00:58;;;;;;;;;;;;;;;3.44;78.55;101786.64;108818;1257;71429;-84
2023/02/16 06:03:25;;;;;;;;;;;;;;;3.45;78.51;101791.86;108521;1256;124982;-80
2023/02/16 06:05:53;;;;;;;;;;;;;;;3.46;78.50;101796.65;108620;1257;59407;-80
2023/02/16 06:08:20;;;;;;;;;;;;;;;3.46;78.43;101793.88;108674;1256;73435;-81
2023/02/16 06:10:50;;;;;;;;;;;;;;;3.50;78.31;101791.90;108685;1257;124522;-80
2023/02/16 06:13:17;;;;;;;;;;;;;;;3.52;78.41;101788.22;108681;1257;73292;-80
2023/02/16 06:15:43;;;;;;;;;;;;;;;3.52;78.25;101785.11;108678;1256;125363;-81
2023/02/16 06:18:10;;;;;;;;;;;;;;;3.55;78.31;101779.73;108825;1258;59425;-82
2023/02/16 06:20:38;;;;;;;;;;;;;;;3.57;78.38;101775.91;108671;1256;73426;-82
2023/02/16 06:23:09;;;;;;;;;;;;;;;3.60;78.40;101772.13;108780;1256;124989;-82
2023/02/16 06:25:35;;;;;;;;;;;;;;;3.63;78.25;101773.20;108858;1260;72697;-82
2023/02/16 06:28:02;;;;;;;;;;;;;;;3.61;78.03;101765.58;108625;1262;124089;-82
2023/02/16 06:30:29;;;;;;;;;;;;;;;3.60;78.10;101767.23;108743;1257;60236;-84
2023/02/16 06:32:56;;;;;;;;;;;;;;;3.60;77.99;101759.27;108746;1256;124051;-82
2023/02/16 06:35:23;;;;;;;;;;;;;;;3.63;78.13;101750.44;108828;1257;66926;-83
2023/02/16 06:37:50;;;;;;;;;;;;;;;3.65;78.04;101759.09;108727;1256;71525;-82
2023/02/16 06:40:18;;;;;;;;;;;;;;;3.62;77.91;101760.63;108619;1256;124188;-82
2023/02/16 06:42:44;;;;;;;;;;;;;;;3.61;77.93;101751.71;108831;1256;59407;-82
2023/02/16 06:45:11;;;;;;;;;;;;;;;3.62;77.73;101759.23;108551;1258;124111;-82
2023/02/16 06:47:38;;;;;;;;;;;;;;;3.62;77.91;101766.38;108862;1256;67568;-83
2023/02/16 06:50:06;;;;;;;;;;;;;;;3.60;77.80;101756.50;108698;1257;72643;-82
2023/02/16 06:52:33;;;;;;;;;;;;;;;3.56;77.69;101755.83;108696;1257;123966;-82
2023/02/16 06:54:59;;;;;;;;;;;;;;;3.53;77.80;101754.60;108933;1257;59808;-84
2023/02/16 06:57:27;;;;;;;;;;;;;;;3.50;77.77;101755.66;108753;1261;126103;-81
2023/02/16 06:59:55;;;;;;;;;;;;;;;3.47;77.74;101756.97;108746;1256;66866;-82
2023/02/16 07:02:22;;;;;;;;;;;;;;;3.47;77.89;101753.38;108718;1256;71136;-82
2023/02/16 07:04:49;;;;;;;;;;;;;;;3.48;77.91;101753.40;108828;1256;125287;-82
2023/02/16 07:07:16;;;;;;;;;;;;;;;3.47;77.87;101752.98;108878;1256;59241;-82
2023/02/16 07:09:43;;;;;;;;;;;;;;;3.50;78.02;101753.54;108610;1257;126870;-81
2023/02/16 07:12:10;;;;;;;;;;;;;;;3.51;77.86;101746.85;108907;1256;65651;-82
2023/02/16 07:14:37;;;;;;;;;;;;;;;3.49;77.82;101745.50;108935;1272;71426;-82
2023/02/16 07:17:04;;;;;;;;;;;;;;;3.52;77.83;101749.19;108745;1257;124758;-82
2023/02/16 07:19:32;;;;;;;;;;;;;;;3.57;77.89;101748.10;108663;1256;59678;-82
2023/02/16 07:22:00;;;;;;;;;;;;;;;3.58;77.77;101737.10;108692;1256;124729;-82
2023/02/16 07:24:27;;;;;;;;;;;;;;;3.65;77.98;101728.55;108733;1259;66959;-82
2023/02/16 07:26:54;;;;;;;;;;;;;;;3.74;77.89;101731.05;108679;1256;72887;-82
2023/02/16 07:29:21;;;;;;;;;;;;;;;3.80;77.94;101726.11;108840;1260;59503;-82
2023/02/16 07:31:49;;;;;;;;;;;;;;;3.84;77.74;101731.05;108721;1263;61066;-82
2023/02/16 07:34:16;;;;;;;;;;;;;;;3.84;77.65;101732.09;108773;1257;125601;-82
2023/02/16 07:36:44;;;;;;;;;;;;;;;3.86;77.58;101730.69;108836;1257;66300;-82
2023/02/16 07:39:11;;;;;;;;;;;;;;;3.88;77.49;101728.19;108759;1256;125207;-82
2023/02/16 07:41:38;;;;;;;;;;;;;;;3.91;77.53;101731.02;108939;1256;59322;-82
2023/02/16 07:44:05;;;;;;;;;;;;;;;3.97;77.61;101730.19;108830;1257;59806;-82
2023/02/16 07:46:32;;;;;;;;;;;;;;;4.04;77.56;101730.31;108607;1257;125481;-83
2023/02/16 07:48:59;;;;;;;;;;;;;;;4.16;77.63;101729.88;108881;1258;65775;-82
2023/02/16 07:51:27;;;;;;;;;;;;;;;4.26;77.48;101727.61;108775;1257;124972;-82
2023/02/16 07:53:54;;;;;;;;;;;;;;;4.33;77.34;101729.59;108913;1256;58947;-82
2023/02/16 07:56:24;;;;;;;;;;;;;;;4.32;77.06;101727.50;108986;1256;59661;-82
2023/02/16 07:58:51;;;;;;;;;;;;;;;4.33;77.13;101726.34;108778;1257;123767;-82
2023/02/16 08:01:18;;;;;;;;;;;;;;;4.35;76.97;101731.52;108811;1257;68037;-82
2023/02/16 08:03:45;;;;;;;;;;;;;;;4.40;76.97;101733.34;108618;1257;124384;-82
2023/02/16 08:06:12;;;;;;;;;;;;;;;4.35;76.68;101731.48;108892;1256;59487;-82
2023/02/16 08:08:39;;;;;;;;;;;;;;;4.35;76.75;101739.81;108926;1256;59893;-82
2023/02/16 08:11:07;;;;;;;;;;;;;;;4.34;76.61;101740.42;108811;1256;124411;-82
2023/02/16 08:13:34;;;;;;;;;;;;;;;4.32;76.64;101738.73;108905;1257;65737;-82
2023/02/16 08:16:01;;;;;;;;;;;;;;;4.30;76.54;101739.02;108839;1256;125229;-82
2023/02/16 08:18:29;;;;;;;;;;;;;;;4.32;76.58;101741.20;108818;1256;59382;-83
2023/02/16 08:20:56;;;;;;;;;;;;;;;4.35;76.68;101742.09;108989;1256;59949;-82
2023/02/16 08:23:23;;;;;;;;;;;;;;;4.40;76.62;101740.71;108872;1256;125352;-82
2023/02/16 08:25:50;;;;;;;;;;;;;;;4.41;76.49;101742.15;108871;1257;65097;-82
2023/02/16 08:28:18;;;;;;;;;;;;;;;4.44;76.35;101737.66;108695;1259;125137;-83
2023/02/16 08:30:45;;;;;;;;;;;;;;;4.46;76.39;101742.48;108864;1257;59696;-82
2023/02/16 08:33:15;;;;;;;;;;;;;;;4.46;76.38;101742.48;108795;1256;124741;-83
2023/02/16 08:35:42;;;;;;;;;;;;;;;4.52;76.44;101744.59;108893;1257;74795;-82
2023/02/16 08:38:09;;;;;;;;;;;;;;;4.56;76.35;101735.66;108899;1272;67273;-82
2023/02/16 08:40:37;;;;;;;;;;;;;;;4.67;76.47;101738.94;108823;1256;125166;-82
2023/02/16 08:43:04;;;;;;;;;;;;;;;4.80;76.32;101734.77;108787;1256;59300;-82
2023/02/16 08:45:31;;;;;;;;;;;;;;;4.90;76.32;101733.64;108865;1256;125442;-82
2023/02/16 08:48:01;;;;;;;;;;;;;;;5.01;76.21;101740.27;108788;1256;74503;-84
2023/02/16 08:50:45;;;;;;;;;;;;;;;5.08;75.92;101730.40;108854;1257;68062;-82
2023/02/16 08:53:14;;;;;;;;;;;;;;;5.16;75.95;101729.03;108696;1257;124619;-83
2023/02/16 08:55:41;;;;;;;;;;;;;;;5.26;75.93;101718.16;108927;1257;59328;-82
2023/02/16 08:58:08;;;;;;;;;;;;;;;5.40;76.03;101714.47;108829;1257;124685;-82
2023/02/16 09:00:42;;;;;;;;;;;;;;;5.60;76.02;101712.19;108907;1256;76047;-82
2023/02/16 09:03:09;;;;;;;;;;;;;;;5.81;75.92;101711.87;108615;1256;124366;-82
2023/02/16 09:05:36;;;;;;;;;;;;;;;5.96;75.61;101712.60;108836;1256;72074;-82
2023/02/16 09:08:03;;;;;;;;;;;;;;;6.05;75.34;101714.37;108888;1256;59382;-83
2023/02/16 09:10:30;;;;;;;;;;;;;;;6.19;75.41;101712.10;108719;1260;124950;-83
2023/02/16 09:12:57;;;;;;;;;;;;;;;6.32;75.11;101712.99;108728;1259;73381;-82
2023/02/16 09:15:24;;;;;;;;;;;;;;;6.46;74.99;101708.40;108614;1257;248664;-83
2023/02/16 09:17:51;;;;;;;;;;;;;;;6.59;74.88;101701.45;108878;1257;73621;-83
2023/02/16 09:20:19;;;;;;;;;;;;;;;6.71;74.69;101703.02;108732;1272;59419;-83
2023/02/16 09:22:47;;;;;;;;;;;;;;;6.79;74.29;101704.65;108826;1256;123822;-83
2023/02/16 09:25:14;;;;;;;;;;;;;;;6.85;74.02;101714.05;108944;1257;73074;-83
2023/02/16 09:27:42;;;;;;;;;;;;;;;6.85;73.83;101710.39;108797;1257;124007;-83
2023/02/16 09:30:14;;;;;;;;;;;;;;;6.86;73.62;101702.92;108873;1257;73587;-84
2023/02/16 09:32:41;;;;;;;;;;;;;;;6.88;73.56;101699.73;108900;1257;59331;-83
2023/02/16 09:35:08;;;;;;;;;;;;;;;6.91;73.56;101701.99;108814;1256;124770;-83
2023/02/16 09:37:36;;;;;;;;;;;;;;;6.96;73.48;101697.92;108961;1257;74394;-84
2023/02/16 09:40:03;;;;;;;;;;;;;;;7.00;73.36;101698.83;108851;1256;124694;-83
2023/02/16 09:42:33;;;;;;;;;;;;;;;7.07;73.30;101697.79;108961;1256;71255;-83
2023/02/16 09:45:06;;;;;;;;;;;;;;;7.14;73.21;101696.80;108853;1256;59524;-84
2023/02/16 09:47:33;;;;;;;;;;;;;;;7.20;73.09;101690.83;108905;1257;60168;-83
2023/02/16 09:50:02;;;;;;;;;;;;;;;7.26;72.93;101686.29;108935;1256;73115;-83
2023/02/16 09:52:39;;;;;;;;;;;;;;;7.30;72.85;101684.22;108660;1257;124189;-83
2023/02/16 09:55:07;;;;;;;;;;;;;;;7.38;72.79;101682.73;108705;1257;72061;-83
2023/02/16 09:57:54;;;;;;;;;;;;;;;7.49;72.83;101685.71;108677;1257;124004;-84
2023/02/16 10:00:38;;;;;;;;;;;;;;;7.56;72.67;101683.14;108766;1256;59055;-83
2023/02/16 10:03:12;;;;;;;;;;;;;;;7.64;72.50;101683.70;108617;1256;124639;-83
2023/02/16 10:05:45;;;;;;;;;;;;;;;7.63;72.18;101675.25;108714;1257;66716;-83
2023/02/16 10:08:15;;;;;;;;;;;;;;;7.66;72.06;101678.37;108787;1256;72018;-83
2023/02/16 10:10:42;;;;;;;;;;;;;;;7.64;72.06;101673.03;108581;1259;124468;-83
2023/02/16 10:13:18;;;;;;;;;;;;;;;7.70;72.13;101677.36;108911;1257;60075;-84
2023/02/16 10:15:45;;;;;;;;;;;;;;;7.80;72.08;101681.05;108686;1257;125143;-84
2023/02/16 10:18:14;;;;;;;;;;;;;;;7.84;71.85;101683.15;108699;1256;68061;-83
2023/02/16 10:20:41;;;;;;;;;;;;;;;7.81;71.53;101675.48;108899;1259;72412;-83
2023/02/16 10:23:26;;;;;;;;;;;;;;;7.84;71.74;101678.93;108784;1256;125025;-83
2023/02/16 10:25:55;;;;;;;;;;;;;;;7.93;71.78;101676.46;108895;1257;59606;-84
2023/02/16 10:28:28;;;;;;;;;;;;;;;8.01;71.66;101671.26;108690;1257;126289;-84
2023/02/16 10:30:57;;;;;;;;;;;;;;;8.07;71.53;101670.85;108897;1257;66772;-84
2023/02/16 10:33:39;;;;;;;;;;;;;;;8.05;71.23;101674.26;108666;1256;124946;-83
2023/02/16 10:36:25;;;;;;;;;;;;;;;7.93;70.92;101673.85;108754;1262;59382;-83
2023/02/16 10:39:02;;;;;;;;;;;;;;;7.80;70.85;101670.73;108757;1257;59358;-84
2023/02/16 10:41:31;;;;;;;;;;;;;;;7.72;70.72;101671.54;108852;1257;125113;-83
2023/02/16 10:44:03;;;;;;;;;;;;;;;7.64;70.91;101668.14;108877;1257;67587;-84
2023/02/16 10:46:31;;;;;;;;;;;;;;;7.63;70.95;101661.30;108648;1257;123991;-83
2023/02/16 10:48:58;;;;;;;;;;;;;;;7.65;71.13;101661.73;108725;1262;59236;-83
2023/02/16 10:51:27;;;;;;;;;;;;;;;7.73;71.21;101661.45;108647;1257;124088;-84
2023/02/16 10:53:55;;;;;;;;;;;;;;;7.84;71.34;101662.17;108754;1256;75959;-83
2023/02/16 10:56:41;;;;;;;;;;;;;;;7.91;71.15;101654.35;108819;1257;67877;-84
2023/02/16 10:59:17;;;;;;;;;;;;;;;7.89;70.97;101658.45;108794;1257;123903;-84
2023/02/16 11:02:04;;;;;;;;;;;;;;;7.99;71.07;101660.66;108888;1257;59399;-83
2023/02/16 11:04:35;;;;;;;;;;;;;;;8.07;71.03;101651.95;108799;1256;124331;-83
2023/02/16 11:07:10;;;;;;;;;;;;;;;8.16;70.98;101649.09;108753;1257;74655;-84
2023/02/16 11:09:37;;;;;;;;;;;;;;;8.21;70.81;101646.36;108675;1257;124235;-84
2023/02/16 11:12:23;;;;;;;;;;;;;;;8.23;70.73;101645.25;108898;1256;73358;-83
2023/02/16 11:14:51;;;;;;;;;;;;;;;8.30;70.82;101637.86;108920;1257;59355;-84
2023/02/16 11:17:19;;;;;;;;;;;;;;;8.38;70.78;101639.31;108848;1257;124215;-84
2023/02/16 11:19:47;;;;;;;;;;;;;;;8.46;70.77;101637.48;108774;1256;74883;-84
2023/02/16 11:22:35;;;;;;;;;;;;;;;8.52;70.64;101629.55;108790;1256;123784;-84
2023/02/16 11:25:21;;;;;;;;;;;;;;;8.57;70.77;101629.23;108948;1257;70783;-83
2023/02/16 11:27:54;;;;;;;;;;;;;;;8.61;70.59;101631.36;108861;1257;124677;-83
2023/02/16 11:30:42;;;;;;;;;;;;;;;8.62;70.35;101625.27;108896;1257;59953;-83
2023/02/16 11:33:22;;;;;;;;;;;;;;;8.55;70.25;101624.23;108666;1256;125152;-83
2023/02/16 11:35:49;;;;;;;;;;;;;;;8.52;70.17;101625.52;108845;1256;67122;-84
2023/02/16 11:38:26;;;;;;;;;;;;;;;8.48;70.02;101629.14;108790;1266;72742;-84
2023/02/16 11:40:53;;;;;;;;;;;;;;;8.46;70.23;101630.80;108676;1257;124730;-84
2023/02/16 11:43:20;;;;;;;;;;;;;;;8.49;70.17;101625.54;108810;1256;59362;-84
2023/02/16 11:46:03;;;;;;;;;;;;;;;8.53;70.27;101618.02;108852;1257;124803;-84
2023/02/16 11:48:31;;;;;;;;;;;;;;;8.55;70.24;101608.86;108863;1256;67073;-84
2023/02/16 11:51:02;;;;;;;;;;;;;;;8.52;70.20;101611.71;108938;1257;73125;-84
2023/02/16 11:53:33;;;;;;;;;;;;;;;8.54;70.28;101609.34;108685;1256;124902;-84
2023/02/16 11:56:11;;;;;;;;;;;;;;;8.60;70.34;101604.54;108940;1257;59296;-84
2023/02/16 11:58:38;;;;;;;;;;;;;;;8.66;70.53;101596.75;108672;1257;124538;-84
2023/02/16 12:01:07;;;;;;;;;;;;;;;8.76;70.71;101591.27;108762;1262;66939;-84
2023/02/16 12:03:53;;;;;;;;;;;;;;;8.87;70.78;101587.73;108808;1260;125252;-83
2023/02/16 12:06:39;;;;;;;;;;;;;;;8.97;70.73;101581.36;108838;1256;59404;-84
2023/02/16 12:09:06;;;;;;;;;;;;;;;9.07;70.77;101570.61;108782;1256;125345;-84
2023/02/16 12:11:36;;;;;;;;;;;;;;;9.13;70.75;101565.10;108821;1256;75111;-84
2023/02/16 12:14:21;;;;;;;;;;;;;;;9.15;70.63;101560.46;108830;1257;65707;-84
2023/02/16 12:16:59;;;;;;;;;;;;;;;9.16;70.47;101557.34;108636;1257;125619;-84
2023/02/16 12:19:26;;;;;;;;;;;;;;;9.09;70.50;101557.39;108722;1256;60275;-84
2023/02/16 12:21:56;;;;;;;;;;;;;;;9.08;70.69;101557.69;108816;1257;125744;-83
2023/02/16 12:24:33;;;;;;;;;;;;;;;9.13;70.83;101556.70;108933;1257;73945;-83
2023/02/16 12:27:01;;;;;;;;;;;;;;;9.15;70.87;101553.98;108830;1257;68107;-84
2023/02/16 12:30:00;;;;;;;;;;;;;;;9.18;70.80;101549.52;108775;1257;71423;-84
2023/02/16 12:32:48;;;;;;;;;;;;;;;9.16;70.61;101547.19;108412;1265;60207;-84
2023/02/16 12:35:34;;;;;;;;;;;;;;;9.14;70.50;101550.98;108196;1264;125017;-83
2023/02/16 12:38:07;;;;;;;;;;;;;;;9.09;70.37;101556.88;108348;1268;74526;-83
2023/02/16 12:41:00;;;;;;;;;;;;;;;9.06;70.37;101551.86;108209;1264;126433;-83
2023/02/16 12:43:39;;;;;;;;;;;;;;;9.01;70.38;101545.48;107731;1270;71453;-83
2023/02/16 12:46:11;;;;;;;;;;;;;;;8.94;70.22;101546.59;107429;1271;125281;-83
2023/02/16 12:48:41;;;;;;;;;;;;;;;8.87;70.12;101551.88;107705;1271;60707;-83
2023/02/16 12:51:09;;;;;;;;;;;;;;;8.78;70.10;101550.77;107718;1270;124899;-82
2023/02/16 12:53:36;;;;;;;;;;;;;;;8.67;70.13;101551.66;107771;1271;67092;-83
2023/02/16 12:56:06;;;;;;;;;;;;;;;8.61;70.40;101550.18;107757;1271;72728;-83
2023/02/16 12:58:39;;;;;;;;;;;;;;;8.59;70.42;101553.74;107573;1270;124614;-83
2023/02/16 13:01:16;;;;;;;;;;;;;;;8.55;70.63;101554.99;107733;1270;60755;-83
2023/02/16 13:03:51;;;;;;;;;;;;;;;8.54;70.73;101554.41;107687;1275;124176;-83
2023/02/16 13:06:40;;;;;;;;;;;;;;;8.53;70.87;101555.25;107846;1273;65768;-83
2023/02/16 13:09:24;;;;;;;;;;;;;;;8.54;70.87;101553.20;107902;1266;125644;-83
2023/02/16 13:12:05;;;;;;;;;;;;;;;8.56;71.01;101549.63;108311;1265;59478;-83
2023/02/16 13:14:33;;;;;;;;;;;;;;;8.59;70.96;101550.78;108356;1266;60403;-83
2023/02/16 13:17:01;;;;;;;;;;;;;;;8.62;71.00;101553.88;108061;1266;125439;-83
2023/02/16 13:19:30;;;;;;;;;;;;;;;8.64;71.01;101549.11;108122;1268;66668;-83
2023/02/16 13:21:57;;;;;;;;;;;;;;;8.66;70.93;101548.48;108752;1262;124581;-83
2023/02/16 13:24:50;;;;;;;;;;;;;;;8.68;70.89;101548.58;108695;1257;59516;-83
2023/02/16 13:27:17;;;;;;;;;;;;;;;8.71;70.96;101546.77;108674;1260;125187;-83
2023/02/16 13:29:59;;;;;;;;;;;;;;;8.74;71.01;101547.80;108930;1262;73302;-83
2023/02/16 13:32:29;;;;;;;;;;;;;;;8.79;70.94;101548.35;108915;1257;66929;-83